Funds performance table by strategy

help icon
fund name 1 mth 3 mth 12 mth ytdsort icon Inception Net assets Return Date
MLIS York Event Driven UCITS B GBP Inc 2% 2% 23% 8% 9% 601M 2014-08-31
MLIS York Event Driven UCITS B GBP Acc 2% 2% 23% 8% 9% 601M 2014-08-31
Calvert Large Cap Core I 2% 3% 19% 8% 6% - 2014-08-31
Vista-View Tai-9th 1 6% 13% 7% 8% 0% - 2014-08-31
SMMI Long-Term Growth Solution 7 FoF B9 0% 2% 16% 8% 11% 358M 2014-08-31
Horizons Active North Amer Value ETF Adv 4% 10% 7% 8% 9% 12M 2013-02-28
G Fund European Equity High Dividend I 2% 0% 20% 8% 10% 16M 2014-08-31
Continental Healthcare Fund 0% 2% 15% 8% 8% - 2014-08-31
Shinyoung Marathon Equity W 0% 4% 15% 8% 11% 4295M 2014-08-31
Shinyoung RP Dividend Bond Fdr Bd Bal C 0% 4% 10% 8% 8% 4295M 2014-08-31
Henderson US Growth I Acc 4% 7% 16% 8% 9% 395M 2014-08-31
SMMI Prudential Balanced 1 B3 0% 2% 19% 8% 14% 341M 2014-08-31
Crabel Multi-Product Class AA 1% 3% 3% 8% 15% 1568M 2014-08-31
Nordea-1 Swedish Bond BI SEK 1% 3% 9% 8% 2% 1742M 2014-08-31
WBI Absolute Return Balanced Plus Instl 2% 2% 11% 8% 8% - 2014-08-31
Investec Emerg Markets Equity I Net Acc 3% 7% 10% 8% 7% 166M 2014-08-31
Mirova Euro Sustainable Aggreg M/D EUR 1% 2% 0% 8% 9% 312M 2014-08-31
Itaú Carteira Inst 66 FI RF 0% 2% 12% 8% 13% 536M 2014-08-31
Hang Seng FTSE China 25 ETF 0% 12% 17% 8% 10% 183M 2014-08-31
Helios Strategic Mortgage Income 2% 8% -2% 8% 1% - 2012-03-31
CFS FC WS Inv-Goldman Sachs W Aus Infra 1% 0% 15% 8% 3% - 2013-07-31
SIM Balanced B 0% 1% 17% 8% 0% 4295M 2014-08-31
Nuveen TN Municipal Bond I 1% 1% 11% 8% 5% - 2014-08-31
Winning Funds Full Equity D 1% 4% 16% 8% 3% 81M 2014-08-31
L&G UK Index I Inc 4% 11% 2% 8% 0% 4098M 2012-02-29
OYSTER European Fixed Income I EUR 1% 2% 11% 8% 6% 211M 2014-08-31
LO Funds - Euro Government Fdmtl S A 1% 3% 10% 8% 4% 80M 2014-08-31
GEFIP Patrimoine I 1% 3% 11% 8% 0% 41M 2014-08-31
Manning & Napier Target 2025 I 2% 2% 17% 8% 17% - 2014-08-31
PineBridge American Equity Y 4% 4% 23% 8% 9% 79M 2014-08-31

All our data is licensed from Morningstar UK Ltd. Important legal information